sensor_id;sensor_type;location;lat;lon;timestamp;pressure;altitude;pressure_sealevel;temperature;humidity
77631;BME280;66798;47.370;8.552;2024-02-04T04:14:11;98040.72;;;5.11;89.06
77631;BME280;66798;47.370;8.552;2024-02-04T04:16:36;98037.47;;;5.09;89.13
77631;BME280;66798;47.370;8.552;2024-02-04T04:19:02;98041.50;;;5.12;88.79
77631;BME280;66798;47.370;8.552;2024-02-04T04:21:27;98052.31;;;5.02;89.45
77631;BME280;66798;47.370;8.552;2024-02-04T04:23:53;98053.13;;;5.09;88.48
77631;BME280;66798;47.370;8.552;2024-02-04T04:26:18;98053.94;;;5.10;89.10
77631;BME280;66798;47.370;8.552;2024-02-04T04:28:44;98050.94;;;5.13;89.22
77631;BME280;66798;47.370;8.552;2024-02-04T04:31:09;98042.50;;;5.11;89.24
77631;BME280;66798;47.370;8.552;2024-02-04T04:33:36;98051.94;;;5.12;88.67
77631;BME280;66798;47.370;8.552;2024-02-04T04:36:02;98043.94;;;5.14;88.63
77631;BME280;66798;47.370;8.552;2024-02-04T04:38:27;98036.28;;;5.12;89.37
77631;BME280;66798;47.370;8.552;2024-02-04T04:40:53;98043.75;;;5.15;88.88
77631;BME280;66798;47.370;8.552;2024-02-04T04:43:19;98038.91;;;5.12;88.89
77631;BME280;66798;47.370;8.552;2024-02-04T04:45:44;98038.91;;;5.12;88.90
77631;BME280;66798;47.370;8.552;2024-02-04T04:48:10;98042.84;;;4.95;89.39
77631;BME280;66798;47.370;8.552;2024-02-04T04:50:35;98027.22;;;4.95;89.98
77631;BME280;66798;47.370;8.552;2024-02-04T04:53:01;98026.66;;;5.06;89.63
77631;BME280;66798;47.370;8.552;2024-02-04T04:55:27;98019.59;;;5.00;89.67
77631;BME280;66798;47.370;8.552;2024-02-04T04:57:52;98026.66;;;5.06;89.62
77631;BME280;66798;47.370;8.552;2024-02-04T05:00:18;98031.44;;;5.02;89.53
77631;BME280;66798;47.370;8.552;2024-02-04T05:02:44;98029.22;;;4.99;89.98
77631;BME280;66798;47.370;8.552;2024-02-04T05:05:13;98026.22;;;5.02;89.87
77631;BME280;66798;47.370;8.552;2024-02-04T16:02:40;97808.47;;;7.69;81.09
77631;BME280;66798;47.370;8.552;2024-02-04T16:05:08;97802.19;;;7.70;80.57
77631;BME280;66798;47.370;8.552;2024-02-04T16:07:34;97814.78;;;7.61;81.46
77631;BME280;66798;47.370;8.552;2024-02-04T16:10:00;97804.31;;;7.61;80.84
77631;BME280;66798;47.370;8.552;2024-02-04T16:12:26;97807.59;;;7.56;81.80
77631;BME280;66798;47.370;8.552;2024-02-04T16:14:52;97813.63;;;7.57;81.09
77631;BME280;66798;47.370;8.552;2024-02-04T16:17:19;97818.56;;;7.47;81.42
77631;BME280;66798;47.370;8.552;2024-02-04T16:19:50;97808.50;;;7.43;83.88
77631;BME280;66798;47.370;8.552;2024-02-04T16:22:19;97814.41;;;7.39;82.62
77631;BME280;66798;47.370;8.552;2024-02-04T16:24:46;97812.34;;;7.41;82.60
77631;BME280;66798;47.370;8.552;2024-02-04T16:27:12;97815.69;;;7.30;84.95
77631;BME280;66798;47.370;8.552;2024-02-04T16:29:39;97815.53;;;7.25;84.97
77631;BME280;66798;47.370;8.552;2024-02-04T16:32:07;97818.22;;;7.18;86.18
77631;BME280;66798;47.370;8.552;2024-02-04T16:34:32;97823.81;;;7.21;85.76
77631;BME280;66798;47.370;8.552;2024-02-04T16:37:02;97829.91;;;7.15;85.45
77631;BME280;66798;47.370;8.552;2024-02-04T16:39:31;97831.28;;;7.18;86.04
77631;BME280;66798;47.370;8.552;2024-02-04T16:41:56;97829.47;;;7.18;85.48
77631;BME280;66798;47.370;8.552;2024-02-04T16:44:22;97835.06;;;7.22;86.41
77631;BME280;66798;47.370;8.552;2024-02-04T16:46:48;97836.38;;;7.13;84.67
77631;BME280;66798;47.370;8.552;2024-02-04T16:49:13;97839.03;;;7.06;85.02
77631;BME280;66798;47.370;8.552;2024-02-04T16:51:40;97842.88;;;7.04;85.01
77631;BME280;66798;47.370;8.552;2024-02-04T16:54:07;97845.50;;;7.04;83.80
77631;BME280;66798;47.370;8.552;2024-02-04T16:56:33;97846.66;;;7.08;83.81
77631;BME280;66798;47.370;8.552;2024-02-04T16:58:59;97851.31;;;7.06;85.30
77631;BME280;66798;47.370;8.552;2024-02-04T17:01:25;97847.88;;;7.05;83.78
77631;BME280;66798;47.370;8.552;2024-02-04T17:03:51;97848.13;;;7.04;83.95
77631;BME280;66798;47.370;8.552;2024-02-04T17:06:17;97847.03;;;7.11;86.38
77631;BME280;66798;47.370;8.552;2024-02-04T17:08:43;97852.47;;;7.10;83.19
77631;BME280;66798;47.370;8.552;2024-02-04T17:11:09;97857.50;;;7.11;84.01
77631;BME280;66798;47.370;8.552;2024-02-04T17:13:35;97858.50;;;7.10;82.85
77631;BME280;66798;47.370;8.552;2024-02-04T17:16:14;97857.88;;;7.15;85.96
77631;BME280;66798;47.370;8.552;2024-02-04T17:18:50;97863.66;;;6.98;86.91
77631;BME280;66798;47.370;8.552;2024-02-04T17:21:39;97852.34;;;6.98;85.81
77631;BME280;66798;47.370;8.552;2024-02-04T17:24:14;97855.03;;;6.91;86.68
77631;BME280;66798;47.370;8.552;2024-02-04T17:26:41;97855.03;;;6.91;87.39
77631;BME280;66798;47.370;8.552;2024-02-04T17:29:07;97852.66;;;6.83;87.17
77631;BME280;66798;47.370;8.552;2024-02-04T17:31:34;97857.53;;;6.79;87.44
77631;BME280;66798;47.370;8.552;2024-02-04T17:34:00;97849.28;;;6.76;86.07
77631;BME280;66798;47.370;8.552;2024-02-04T17:36:25;97849.09;;;6.77;87.15
77631;BME280;66798;47.370;8.552;2024-02-04T17:38:51;97851.69;;;6.77;85.85
77631;BME280;66798;47.370;8.552;2024-02-04T17:41:16;97850.25;;;6.81;86.98
77631;BME280;66798;47.370;8.552;2024-02-04T17:43:43;97851.69;;;6.77;85.27
77631;BME280;66798;47.370;8.552;2024-02-04T17:46:09;97855.53;;;6.75;86.29
77631;BME280;66798;47.370;8.552;2024-02-04T17:48:34;97849.91;;;6.71;87.09
77631;BME280;66798;47.370;8.552;2024-02-04T17:51:00;97837.47;;;6.67;84.94
77631;BME280;66798;47.370;8.552;2024-02-04T17:53:25;97838.84;;;6.76;86.33
77631;BME280;66798;47.370;8.552;2024-02-04T17:55:51;97843.72;;;6.66;85.08
77631;BME280;66798;47.370;8.552;2024-02-04T17:58:19;97842.25;;;6.76;85.40
77631;BME280;66798;47.370;8.552;2024-02-04T18:00:45;97841.59;;;6.81;86.18
77631;BME280;66798;47.370;8.552;2024-02-04T18:03:10;97841.88;;;6.73;85.86
77631;BME280;66798;47.370;8.552;2024-02-04T18:05:36;97846.78;;;6.63;85.88
77631;BME280;66798;47.370;8.552;2024-02-04T18:08:07;97843.41;;;6.55;88.01
77631;BME280;66798;47.370;8.552;2024-02-04T18:10:33;97847.59;;;6.56;88.36
77631;BME280;66798;47.370;8.552;2024-02-04T18:13:01;97849.44;;;6.49;88.70
77631;BME280;66798;47.370;8.552;2024-02-04T18:15:26;97833.59;;;6.44;88.36
77631;BME280;66798;47.370;8.552;2024-02-04T18:17:52;97842.19;;;6.51;86.73
77631;BME280;66798;47.370;8.552;2024-02-04T18:20:19;97842.41;;;6.50;89.53
77631;BME280;66798;47.370;8.552;2024-02-04T18:22:44;97840.59;;;6.50;89.49
77631;BME280;66798;47.370;8.552;2024-02-04T18:25:11;97844.81;;;6.51;88.63
77631;BME280;66798;47.370;8.552;2024-02-04T18:27:37;97843.03;;;6.45;88.57
77631;BME280;66798;47.370;8.552;2024-02-04T18:30:07;97842.44;;;6.43;86.67
77631;BME280;66798;47.370;8.552;2024-02-04T18:32:33;97840.66;;;6.37;87.08
77631;BME280;66798;47.370;8.552;2024-02-04T18:34:58;97834.63;;;6.36;87.35
77631;BME280;66798;47.370;8.552;2024-02-04T18:37:24;97832.81;;;6.37;85.20
77631;BME280;66798;47.370;8.552;2024-02-04T18:39:50;97841.28;;;6.32;85.06
77631;BME280;66798;47.370;8.552;2024-02-04T18:42:18;97834.22;;;6.40;85.67
77631;BME280;66798;47.370;8.552;2024-02-04T18:44:43;97836.22;;;6.44;87.07
77631;BME280;66798;47.370;8.552;2024-02-04T18:47:09;97833.63;;;6.37;85.57
77631;BME280;66798;47.370;8.552;2024-02-04T18:49:38;97841.66;;;6.36;85.94
77631;BME280;66798;47.370;8.552;2024-02-04T18:52:05;97849.91;;;6.33;87.33
77631;BME280;66798;47.370;8.552;2024-02-04T18:54:34;97851.34;;;6.29;86.69
77631;BME280;66798;47.370;8.552;2024-02-04T18:57:00;97854.78;;;6.29;86.15
77631;BME280;66798;47.370;8.552;2024-02-04T18:59:26;97853.41;;;6.20;85.98
77631;BME280;66798;47.370;8.552;2024-02-04T19:01:53;97858.63;;;6.20;87.43
77631;BME280;66798;47.370;8.552;2024-02-04T19:04:20;97857.63;;;6.14;85.93
77631;BME280;66798;47.370;8.552;2024-02-04T19:06:46;97862.66;;;6.16;87.04
77631;BME280;66798;47.370;8.552;2024-02-04T19:09:14;97855.59;;;6.23;86.46
77631;BME280;66798;47.370;8.552;2024-02-04T19:11:41;97861.25;;;6.20;85.57
77631;BME280;66798;47.370;8.552;2024-02-04T19:14:07;97861.41;;;6.25;87.74
77631;BME280;66798;47.370;8.552;2024-02-04T19:16:33;97862.22;;;6.26;86.59
77631;BME280;66798;47.370;8.552;2024-02-04T19:18:58;97859.78;;;6.24;86.60
77631;BME280;66798;47.370;8.552;2024-02-04T19:21:24;97846.16;;;6.22;85.64
77631;BME280;66798;47.370;8.552;2024-02-04T19:23:49;97850.97;;;6.25;86.22
77631;BME280;66798;47.370;8.552;2024-02-04T19:26:15;97846.97;;;6.23;86.41
77631;BME280;66798;47.370;8.552;2024-02-04T19:28:42;97851.97;;;6.24;87.08
77631;BME280;66798;47.370;8.552;2024-02-04T19:31:11;97848.00;;;6.15;86.82
77631;BME280;66798;47.370;8.552;2024-02-04T19:33:37;97856.03;;;6.13;87.82
77631;BME280;66798;47.370;8.552;2024-02-04T19:36:03;97847.16;;;6.14;87.17
77631;BME280;66798;47.370;8.552;2024-02-04T19:38:29;97853.00;;;6.16;86.49
77631;BME280;66798;47.370;8.552;2024-02-04T19:40:54;97852.63;;;6.13;86.47
77631;BME280;66798;47.370;8.552;2024-02-04T19:43:20;97851.41;;;6.15;86.60
77631;BME280;66798;47.370;8.552;2024-02-04T19:45:46;97851.19;;;6.17;86.20
77631;BME280;66798;47.370;8.552;2024-02-04T19:48:11;97848.41;;;6.05;86.82
77631;BME280;66798;47.370;8.552;2024-02-04T19:50:38;97850.22;;;6.11;86.71
77631;BME280;66798;47.370;8.552;2024-02-04T19:53:04;97849.78;;;6.14;86.59
77631;BME280;66798;47.370;8.552;2024-02-04T19:55:30;97849.78;;;6.14;86.60
77631;BME280;66798;47.370;8.552;2024-02-04T19:57:56;97845.41;;;6.08;87.04
77631;BME280;66798;47.370;8.552;2024-02-04T20:00:21;97843.59;;;6.02;86.89
77631;BME280;66798;47.370;8.552;2024-02-04T20:02:47;97849.59;;;6.16;86.21
77631;BME280;66798;47.370;8.552;2024-02-04T20:05:13;97843.56;;;6.15;86.43
77631;BME280;66798;47.370;8.552;2024-02-04T20:07:40;97847.78;;;6.16;86.24
77631;BME280;66798;47.370;8.552;2024-02-04T20:10:06;97856.25;;;6.05;86.53
77631;BME280;66798;47.370;8.552;2024-02-04T20:12:31;97845.59;;;6.07;86.71
77631;BME280;66798;47.370;8.552;2024-02-04T20:14:57;97846.03;;;6.04;86.91
77631;BME280;66798;47.370;8.552;2024-02-04T20:17:22;97838.97;;;6.11;86.36
77631;BME280;66798;47.370;8.552;2024-02-04T20:19:48;97842.19;;;6.13;85.89
77631;BME280;66798;47.370;8.552;2024-02-04T20:22:13;97838.38;;;6.02;86.89
77631;BME280;66798;47.370;8.552;2024-02-04T20:24:40;97837.00;;;6.00;86.48
77631;BME280;66798;47.370;8.552;2024-02-04T20:27:05;97835.16;;;6.00;87.14
77631;BME280;66798;47.370;8.552;2024-02-04T20:29:31;97830.13;;;6.05;86.45
77631;BME280;66798;47.370;8.552;2024-02-04T20:31:56;97830.72;;;6.07;85.73
77631;BME280;66798;47.370;8.552;2024-02-04T20:34:22;97825.13;;;6.04;85.72
